createdAt,value
2022-11-17T00:00:42.989Z,45.05
2022-11-17T00:03:15.982Z,46.90
2022-11-17T00:05:44.871Z,55.25
2022-11-17T00:08:12.017Z,50.20
2022-11-17T00:10:38.932Z,55.45
2022-11-17T00:13:24.553Z,50.97
2022-11-17T00:15:51.851Z,53.58
2022-11-17T00:18:37.902Z,48.35
2022-11-17T00:21:21.918Z,50.40
2022-11-17T00:23:50.687Z,52.92
2022-11-17T00:26:19.006Z,45.85
2022-11-17T00:28:46.234Z,54.25
2022-11-17T00:31:33.719Z,51.25
2022-11-17T00:34:07.294Z,48.80
2022-11-17T00:36:43.414Z,48.38
2022-11-17T00:39:11.846Z,49.50
2022-11-17T00:41:39.664Z,52.15
2022-11-17T00:44:07.779Z,51.25
2022-11-17T00:46:37.247Z,52.65
2022-11-17T00:49:05.991Z,49.72
2022-11-17T00:51:33.891Z,46.95
2022-11-17T00:54:02.181Z,43.95
2022-11-17T00:56:29.686Z,45.17
2022-11-17T00:58:56.621Z,44.95
2022-11-17T01:01:24.756Z,47.80
2022-11-17T01:04:03.315Z,47.22
2022-11-17T01:06:46.231Z,45.65
2022-11-17T01:09:15.059Z,46.13
2022-11-17T01:11:43.193Z,46.83
2022-11-17T01:14:17.716Z,39.95
2022-11-17T01:16:45.891Z,35.97
2022-11-17T01:19:14.729Z,30.55
2022-11-17T01:21:41.786Z,36.10
2022-11-17T01:24:11.687Z,39.85
2022-11-17T01:26:40.045Z,36.70
2022-11-17T01:29:08.501Z,33.90
2022-11-17T01:31:38.684Z,32.20
2022-11-17T01:34:07.412Z,32.88
2022-11-17T01:36:57.662Z,35.67
2022-11-17T01:39:26.623Z,40.38
2022-11-17T01:41:55.229Z,34.63
2022-11-17T01:44:54.235Z,38.17
2022-11-17T01:47:28.902Z,28.30
2022-11-17T01:50:08.436Z,29.48
2022-11-17T01:52:38.560Z,31.05
2022-11-17T01:55:08.794Z,35.00
2022-11-17T01:58:01.492Z,29.42
2022-11-17T02:00:32.009Z,29.90
2022-11-17T02:02:59.717Z,23.80
2022-11-17T02:05:55.267Z,26.80
2022-11-17T02:08:25.669Z,23.20
2022-11-17T02:10:53.933Z,26.42
2022-11-17T02:13:22.747Z,23.65
2022-11-17T02:15:50.434Z,28.20
2022-11-17T02:18:18.498Z,28.38
2022-11-17T02:21:10.767Z,26.48
2022-11-17T02:23:40.808Z,21.00
2022-11-17T02:26:26.894Z,25.50
2022-11-17T02:29:15.251Z,21.42
2022-11-17T02:31:59.147Z,24.58
2022-11-17T02:34:50.649Z,25.77
2022-11-17T02:37:33.130Z,23.70
2022-11-17T02:40:04.043Z,26.80
2022-11-17T02:42:57.617Z,35.00
2022-11-17T02:45:37.540Z,33.58
2022-11-17T02:48:11.897Z,38.20
2022-11-17T02:50:41.554Z,32.50
2022-11-17T02:53:09.216Z,36.17
2022-11-17T02:55:37.589Z,34.42
2022-11-17T02:58:09.857Z,35.92
2022-11-17T03:00:49.776Z,34.10
2022-11-17T03:03:31.798Z,32.30
2022-11-17T03:06:16.539Z,27.30
2022-11-17T03:08:58.880Z,27.88
2022-11-17T03:11:40.116Z,34.10
2022-11-17T03:14:21.236Z,32.78
2022-11-17T03:17:03.428Z,41.53
2022-11-17T03:19:38.630Z,31.92
2022-11-17T03:22:15.512Z,26.73
2022-11-17T03:24:48.968Z,33.88
2022-11-17T03:27:31.087Z,29.23
2022-11-17T03:30:09.638Z,23.60
2022-11-17T03:32:41.409Z,27.83
2022-11-17T03:35:12.637Z,24.95
2022-11-17T03:37:46.606Z,25.40
2022-11-17T03:40:18.763Z,22.58
2022-11-17T03:42:52.859Z,27.83
2022-11-17T03:45:26.233Z,32.30
2022-11-17T03:48:09.053Z,29.27
2022-11-17T03:50:46.399Z,23.27
2022-11-17T03:53:14.418Z,24.65
2022-11-17T03:55:59.419Z,24.17
2022-11-17T03:58:33.693Z,26.13
2022-11-17T04:01:03.713Z,27.88
2022-11-17T04:03:34.339Z,25.30
2022-11-17T04:06:02.049Z,26.40
2022-11-17T04:08:30.903Z,27.23
2022-11-17T04:11:17.001Z,33.13
2022-11-17T04:14:02.352Z,31.35
2022-11-17T04:16:29.970Z,31.80
2022-11-17T04:18:58.969Z,32.25
2022-11-17T04:21:26.597Z,31.73
2022-11-17T04:23:53.672Z,28.40
2022-11-17T04:26:39.760Z,27.92
2022-11-17T04:29:07.280Z,23.17
2022-11-17T04:31:35.373Z,23.38
2022-11-17T04:34:05.182Z,27.75
2022-11-17T04:36:41.006Z,25.85
2022-11-17T04:39:07.986Z,28.42
2022-11-17T04:41:54.198Z,28.42
2022-11-17T04:44:23.994Z,27.05
2022-11-17T04:46:55.512Z,25.65
2022-11-17T04:49:23.986Z,23.73
2022-11-17T04:51:52.818Z,29.50
2022-11-17T04:54:24.296Z,36.38
2022-11-17T04:56:52.552Z,42.00
2022-11-17T04:59:19.824Z,42.63
2022-11-17T05:01:47.386Z,48.40
2022-11-17T05:04:35.799Z,45.60
2022-11-17T05:07:03.101Z,49.45
2022-11-17T05:09:31.324Z,70.93
2022-11-17T05:12:17.385Z,70.60
2022-11-17T05:14:48.782Z,57.40
2022-11-17T05:19:47.604Z,55.85
2022-11-17T05:22:37.858Z,58.45
2022-11-17T05:25:07.045Z,51.88
2022-11-17T05:27:38.572Z,44.63
2022-11-17T05:30:10.243Z,40.28
2022-11-17T05:32:38.314Z,45.10
2022-11-17T05:35:08.639Z,40.70
2022-11-17T05:37:38.655Z,43.20
2022-11-17T05:40:06.796Z,43.58
2022-11-17T05:42:35.998Z,39.03
2022-11-17T05:45:08.491Z,34.83
2022-11-17T05:47:39.109Z,35.55
2022-11-17T05:50:07.183Z,33.75
2022-11-17T05:52:38.306Z,37.67
2022-11-17T05:57:38.598Z,29.30
2022-11-17T06:00:06.558Z,26.65
2022-11-17T06:02:53.298Z,29.08
2022-11-17T06:05:24.024Z,30.83
2022-11-17T06:07:58.476Z,31.13
2022-11-17T06:10:27.222Z,32.00
2022-11-17T06:12:54.304Z,33.35
2022-11-17T06:15:22.365Z,30.27
2022-11-17T06:17:55.738Z,32.45
2022-11-17T06:20:34.803Z,32.28
2022-11-17T06:23:04.984Z,30.63
2022-11-17T06:25:34.960Z,35.15
2022-11-17T06:28:07.031Z,31.40
2022-11-17T06:30:39.019Z,37.03
2022-11-17T06:33:12.506Z,31.52
2022-11-17T06:35:41.673Z,28.75
2022-11-17T06:38:09.549Z,23.40
2022-11-17T06:40:39.867Z,28.85
2022-11-17T06:43:09.748Z,30.30
2022-11-17T06:45:39.224Z,27.25
2022-11-17T06:48:08.890Z,29.67
2022-11-17T06:50:36.166Z,24.70
2022-11-17T06:53:07.370Z,34.70
2022-11-17T06:55:41.729Z,24.73
2022-11-17T06:58:11.824Z,36.40
2022-11-17T07:00:42.578Z,27.35
2022-11-17T07:03:12.945Z,34.20
2022-11-17T07:05:40.865Z,36.03
2022-11-17T07:08:09.686Z,45.05
2022-11-17T07:10:37.292Z,51.83
2022-11-17T07:13:05.242Z,50.72
2022-11-17T07:15:32.551Z,48.40
2022-11-17T07:18:00.396Z,56.38
2022-11-17T07:20:27.690Z,51.90
2022-11-17T07:22:59.492Z,43.35
2022-11-17T07:25:26.964Z,32.20
2022-11-17T07:27:59.993Z,33.42
2022-11-17T07:30:28.157Z,30.13
2022-11-17T07:32:55.684Z,30.95
2022-11-17T07:35:23.524Z,30.98
2022-11-17T07:38:02.174Z,32.55
2022-11-17T07:40:30.687Z,34.10
2022-11-17T07:42:58.121Z,32.80
2022-11-17T07:45:31.399Z,33.05
2022-11-17T07:48:01.470Z,29.25
2022-11-17T07:50:30.122Z,31.98
2022-11-17T07:52:57.937Z,36.38
2022-11-17T07:55:26.400Z,29.77
2022-11-17T07:58:02.400Z,28.02
2022-11-17T08:00:33.899Z,26.77
2022-11-17T08:03:03.843Z,33.28
2022-11-17T08:05:39.915Z,29.75
2022-11-17T08:08:13.227Z,32.53
2022-11-17T08:10:43.192Z,37.63
2022-11-17T08:13:17.621Z,38.22
2022-11-17T08:15:45.460Z,36.28
2022-11-17T08:18:13.518Z,32.42
2022-11-17T08:20:40.616Z,36.08
2022-11-17T08:23:08.675Z,33.25
2022-11-17T08:25:36.910Z,33.25
2022-11-17T08:28:04.701Z,34.88
2022-11-17T08:30:36.159Z,36.90
2022-11-17T08:33:05.320Z,35.40
2022-11-17T08:35:37.379Z,45.35
2022-11-17T08:38:05.459Z,41.88
2022-11-17T08:40:33.609Z,39.03
2022-11-17T08:43:01.774Z,40.70
2022-11-17T08:45:29.816Z,40.85
2022-11-17T08:47:57.984Z,47.38
2022-11-17T08:50:26.870Z,42.38
2022-11-17T08:52:54.231Z,36.58
2022-11-17T08:55:21.724Z,33.20
2022-11-17T08:57:52.406Z,26.92
2022-11-17T09:00:21.909Z,13.40
2022-11-17T09:02:49.806Z,10.75
2022-11-17T09:05:17.071Z,15.00
2022-11-17T09:07:45.058Z,12.20
2022-11-17T09:10:12.924Z,11.95
2022-11-17T09:12:41.330Z,11.23
2022-11-17T09:15:09.390Z,9.98
2022-11-17T09:17:40.680Z,8.82
2022-11-17T09:20:10.978Z,8.57
2022-11-17T09:22:39.883Z,12.98
2022-11-17T09:25:13.376Z,10.57
2022-11-17T09:27:49.408Z,13.63
2022-11-17T09:30:22.156Z,10.35
2022-11-17T09:32:50.797Z,9.20
2022-11-17T09:35:19.077Z,8.75
2022-11-17T09:37:47.479Z,11.90
2022-11-17T09:40:19.725Z,8.57
2022-11-17T09:42:50.856Z,19.75
2022-11-17T09:45:26.162Z,11.02
2022-11-17T09:48:12.385Z,15.93
2022-11-17T09:50:46.250Z,18.35
2022-11-17T09:53:31.168Z,12.02
2022-11-17T09:56:03.168Z,12.05
2022-11-17T09:58:41.278Z,11.27
2022-11-17T10:01:21.655Z,10.18
2022-11-17T10:03:51.870Z,8.05
2022-11-17T10:06:21.852Z,8.35
2022-11-17T10:09:13.311Z,9.73
2022-11-17T10:11:43.697Z,11.25
2022-11-17T10:14:18.879Z,12.52
2022-11-17T10:16:55.535Z,11.80
2022-11-17T10:19:32.513Z,11.15
2022-11-17T10:22:06.975Z,11.55
2022-11-17T10:25:01.441Z,14.77
2022-11-17T10:27:28.974Z,12.82
2022-11-17T10:30:00.183Z,16.08
2022-11-17T10:32:31.410Z,15.75
2022-11-17T10:35:22.477Z,13.40
2022-11-17T10:38:09.376Z,19.67
2022-11-17T10:40:39.514Z,14.35
2022-11-17T10:43:18.119Z,15.93
2022-11-17T10:45:46.065Z,15.73
2022-11-17T10:48:29.983Z,12.52
2022-11-17T10:51:11.306Z,9.32
2022-11-17T10:53:46.493Z,13.07
2022-11-17T10:56:22.346Z,22.45
2022-11-17T10:58:59.332Z,19.00
2022-11-17T11:01:33.891Z,15.98
2022-11-17T11:04:04.032Z,17.25
2022-11-17T11:06:34.911Z,13.57
2022-11-17T11:09:23.672Z,9.30
2022-11-17T11:11:58.958Z,9.15
2022-11-17T11:14:44.653Z,9.73
2022-11-17T11:17:14.795Z,13.77
2022-11-17T11:19:46.528Z,19.98
2022-11-17T11:22:35.103Z,16.00
2022-11-17T11:25:05.767Z,11.55
2022-11-17T11:28:00.048Z,10.25
2022-11-17T11:30:27.892Z,9.65
2022-11-17T11:33:11.537Z,7.20
2022-11-17T11:35:58.299Z,10.38
2022-11-17T11:38:55.301Z,6.93
2022-11-17T11:41:40.788Z,4.00
2022-11-17T11:44:20.510Z,4.68
2022-11-17T11:47:10.185Z,5.72
2022-11-17T11:49:56.867Z,6.40
2022-11-17T11:53:21.039Z,7.30
2022-11-17T11:55:53.306Z,8.18
2022-11-17T11:58:23.270Z,4.93
2022-11-17T12:00:56.591Z,3.15
2022-11-17T12:04:25.816Z,4.60
2022-11-17T12:07:34.252Z,3.85
2022-11-17T12:10:21.592Z,4.07
2022-11-17T12:13:14.022Z,3.20
2022-11-17T12:15:41.864Z,4.95
2022-11-17T12:18:50.480Z,4.40
2022-11-17T12:21:26.317Z,3.20
2022-11-17T12:23:54.998Z,9.93
2022-11-17T12:26:31.196Z,4.70
2022-11-17T12:29:20.540Z,3.67
2022-11-17T12:31:49.608Z,5.03
2022-11-17T12:34:35.052Z,4.30
2022-11-17T12:37:16.034Z,9.50
2022-11-17T12:40:04.054Z,10.50
2022-11-17T12:42:34.087Z,9.20
2022-11-17T12:45:07.161Z,12.68
2022-11-17T12:47:37.704Z,10.30
2022-11-17T12:50:37.945Z,6.53
2022-11-17T12:53:14.146Z,7.35
2022-11-17T12:55:48.073Z,6.47
2022-11-17T12:58:36.903Z,4.93
2022-11-17T13:01:29.959Z,12.85
2022-11-17T13:04:06.966Z,4.55
2022-11-17T13:07:03.271Z,6.75
2022-11-17T13:09:33.471Z,4.90
2022-11-17T13:12:11.071Z,7.00
2022-11-17T13:14:58.891Z,5.15
2022-11-17T13:17:31.863Z,6.10
2022-11-17T13:20:04.463Z,4.13
2022-11-17T13:22:33.593Z,5.85
2022-11-17T13:27:50.761Z,5.82
2022-11-17T13:30:25.725Z,6.40
2022-11-17T13:35:30.692Z,5.03
2022-11-17T13:38:22.226Z,6.07
2022-11-17T13:43:27.104Z,6.15
2022-11-17T13:45:55.854Z,7.28
2022-11-17T13:48:37.329Z,7.45
2022-11-17T13:53:47.703Z,6.20
2022-11-17T13:56:34.738Z,6.97
2022-11-17T13:59:21.935Z,6.03
2022-11-17T14:02:23.977Z,6.32
2022-11-17T14:05:09.974Z,8.73
2022-11-17T14:07:43.553Z,10.35
2022-11-17T14:10:22.879Z,8.30
2022-11-17T14:13:24.405Z,5.50
2022-11-17T14:15:55.628Z,6.78
2022-11-17T14:18:37.790Z,4.32
2022-11-17T14:21:17.940Z,5.30
2022-11-17T14:23:46.061Z,5.30
2022-11-17T14:26:27.373Z,6.97
2022-11-17T14:29:02.528Z,6.95
2022-11-17T14:31:31.703Z,16.30
2022-11-17T14:34:07.340Z,14.48
2022-11-17T14:36:37.859Z,10.93
2022-11-17T14:39:18.997Z,9.55
2022-11-17T14:41:48.759Z,7.60
2022-11-17T14:44:19.342Z,12.75
2022-11-17T14:46:47.006Z,40.63
2022-11-17T14:49:15.631Z,19.40
2022-11-17T14:51:43.319Z,23.75
2022-11-17T14:54:10.988Z,11.30
2022-11-17T14:56:38.708Z,7.63
2022-11-17T14:59:06.683Z,13.25
2022-11-17T15:01:38.840Z,20.00
2022-11-17T15:04:34.479Z,47.85
2022-11-17T15:06:55.819Z,38.65
2022-11-17T15:09:23.042Z,35.70
2022-11-17T15:11:52.853Z,37.90
2022-11-17T15:14:20.383Z,30.63
2022-11-17T15:16:49.330Z,37.97
2022-11-17T15:19:16.838Z,43.20
2022-11-17T15:21:48.046Z,22.92
2022-11-17T15:24:15.605Z,29.45
2022-11-17T15:26:42.909Z,47.22
2022-11-17T15:29:15.286Z,64.68
2022-11-17T15:31:43.092Z,62.67
2022-11-17T15:34:14.415Z,38.35
2022-11-17T15:36:48.138Z,35.35
2022-11-17T15:39:16.186Z,39.00
2022-11-17T15:41:43.842Z,62.17
2022-11-17T15:44:15.956Z,27.73
2022-11-17T15:46:47.955Z,21.85
2022-11-17T15:49:16.800Z,27.63
2022-11-17T15:51:50.421Z,20.08
2022-11-17T15:54:26.322Z,18.20
2022-11-17T15:56:54.394Z,21.27
2022-11-17T15:59:24.416Z,28.35
2022-11-17T16:01:51.675Z,19.13
2022-11-17T16:04:19.678Z,25.17
2022-11-17T16:06:47.777Z,24.92
2022-11-17T16:09:16.022Z,25.10
2022-11-17T16:11:43.927Z,29.38
2022-11-17T16:14:12.089Z,30.60
2022-11-17T16:16:39.566Z,39.17
2022-11-17T16:19:07.474Z,33.55
2022-11-17T16:21:35.015Z,32.92
2022-11-17T16:24:03.614Z,47.92
2022-11-17T16:26:31.304Z,49.90
2022-11-17T16:29:00.741Z,39.72
2022-11-17T16:31:30.426Z,39.35
2022-11-17T16:34:01.928Z,42.95
2022-11-17T16:39:06.789Z,53.80
2022-11-17T16:41:38.773Z,53.35
2022-11-17T16:44:13.006Z,56.80
2022-11-17T16:46:46.817Z,60.80
2022-11-17T16:49:23.450Z,53.60
2022-11-17T16:51:54.154Z,63.33
2022-11-17T16:54:21.566Z,56.58
2022-11-17T16:56:48.812Z,61.25
2022-11-17T16:59:16.963Z,78.70
2022-11-17T17:01:44.498Z,83.35
2022-11-17T17:04:12.792Z,71.55
2022-11-17T17:06:42.747Z,79.68
2022-11-17T17:09:12.213Z,55.85
2022-11-17T17:11:50.824Z,54.03
2022-11-17T17:14:19.131Z,55.38
2022-11-17T17:17:10.240Z,49.53
2022-11-17T17:19:40.476Z,56.33
2022-11-17T17:22:07.913Z,52.97
2022-11-17T17:24:35.076Z,45.80
2022-11-17T17:27:02.645Z,51.45
2022-11-17T17:29:39.569Z,46.83
2022-11-17T17:32:07.064Z,50.15
2022-11-17T17:35:04.362Z,52.40
2022-11-17T17:37:37.135Z,45.85
2022-11-17T17:40:20.155Z,54.40
2022-11-17T17:42:47.675Z,21.13
2022-11-17T17:45:15.131Z,29.38
2022-11-17T17:47:42.861Z,34.53
2022-11-17T17:50:10.127Z,52.97
2022-11-17T17:52:37.760Z,42.97
2022-11-17T17:55:05.775Z,53.60
2022-11-17T17:57:34.124Z,51.25
2022-11-17T18:00:01.624Z,46.80
2022-11-17T18:02:31.894Z,37.38
2022-11-17T18:04:59.239Z,41.95
2022-11-17T18:07:26.890Z,47.75
2022-11-17T18:09:56.671Z,70.38
2022-11-17T18:12:24.189Z,73.13
2022-11-17T18:14:51.222Z,36.78
2022-11-17T18:17:18.528Z,28.17
2022-11-17T18:19:45.877Z,26.52
2022-11-17T18:22:13.812Z,36.72
2022-11-17T18:24:41.104Z,27.17
2022-11-17T18:27:09.222Z,15.35
2022-11-17T18:29:38.118Z,15.15
2022-11-17T18:32:06.555Z,10.80
2022-11-17T18:34:34.602Z,11.07
2022-11-17T18:37:08.174Z,10.45
2022-11-17T18:39:36.486Z,9.18
2022-11-17T18:42:03.846Z,6.43
2022-11-17T18:44:31.769Z,8.25
2022-11-17T18:47:02.696Z,6.90
2022-11-17T18:51:58.397Z,7.47
2022-11-17T18:54:27.065Z,6.85
2022-11-17T18:56:54.352Z,7.18
2022-11-17T18:59:21.991Z,6.85
2022-11-17T19:01:50.391Z,6.20
2022-11-17T19:04:18.393Z,11.25
2022-11-17T19:06:45.722Z,8.48
2022-11-17T19:09:14.182Z,10.00
2022-11-17T19:11:41.652Z,14.25
2022-11-17T19:14:09.233Z,20.23
2022-11-17T19:16:44.346Z,20.80
2022-11-17T19:19:14.215Z,32.83
2022-11-17T19:21:42.659Z,25.98
2022-11-17T19:24:10.089Z,19.30
2022-11-17T19:26:37.388Z,19.42
2022-11-17T19:29:11.177Z,16.15
2022-11-17T19:31:42.094Z,12.55
2022-11-17T19:34:09.288Z,9.85
2022-11-17T19:36:36.648Z,8.20
2022-11-17T19:39:04.419Z,10.35
2022-11-17T19:41:37.495Z,9.45
2022-11-17T19:44:07.980Z,8.57
2022-11-17T19:46:36.883Z,8.38
2022-11-17T19:49:06.252Z,11.65
2022-11-17T19:51:37.103Z,13.38
2022-11-17T19:54:09.006Z,26.65
2022-11-17T19:56:37.048Z,41.85
2022-11-17T19:59:06.256Z,47.97
2022-11-17T20:01:34.592Z,47.30
2022-11-17T20:04:07.600Z,50.55
2022-11-17T20:06:38.675Z,46.78
2022-11-17T20:09:11.024Z,46.22
2022-11-17T20:11:38.616Z,41.70
2022-11-17T20:14:06.558Z,45.97
2022-11-17T20:16:34.411Z,50.47
2022-11-17T20:19:02.932Z,57.28
2022-11-17T20:21:33.445Z,58.92
2022-11-17T20:24:01.941Z,56.60
2022-11-17T20:26:32.973Z,46.80
2022-11-17T20:29:00.885Z,36.88
2022-11-17T20:31:34.167Z,34.53
2022-11-17T20:34:03.835Z,45.28
2022-11-17T20:36:33.109Z,42.33
2022-11-17T20:39:03.028Z,43.33
2022-11-17T20:41:30.595Z,45.75
2022-11-17T20:44:00.881Z,39.00
2022-11-17T20:46:28.994Z,41.08
2022-11-17T20:48:56.275Z,45.17
2022-11-17T20:51:25.390Z,54.20
2022-11-17T20:53:55.676Z,46.65
2022-11-17T20:56:22.958Z,55.15
2022-11-17T20:58:50.611Z,84.05
2022-11-17T21:01:23.607Z,77.13
2022-11-17T21:03:51.046Z,83.25
2022-11-17T21:06:20.832Z,78.90
2022-11-17T21:08:48.688Z,68.15
2022-11-17T21:11:37.884Z,71.13
2022-11-17T21:14:06.349Z,56.38
2022-11-17T21:16:38.194Z,53.45
2022-11-17T21:19:06.208Z,43.15
2022-11-17T21:21:34.689Z,45.95
2022-11-17T21:24:04.851Z,41.20
2022-11-17T21:26:32.968Z,27.88
2022-11-17T21:29:06.377Z,32.47
2022-11-17T21:31:38.654Z,39.40
2022-11-17T21:34:07.282Z,40.45
2022-11-17T21:36:36.115Z,45.22
2022-11-17T21:39:04.712Z,32.78
2022-11-17T21:41:56.323Z,25.25
2022-11-17T21:44:32.269Z,26.83
2022-11-17T21:46:59.681Z,22.52
2022-11-17T21:49:26.902Z,26.77
2022-11-17T21:51:54.122Z,27.92
2022-11-17T21:54:22.005Z,30.42
2022-11-17T21:56:49.269Z,30.98
2022-11-17T21:59:17.435Z,36.00
2022-11-17T22:01:45.007Z,30.05
2022-11-17T22:04:13.255Z,33.42
2022-11-17T22:06:40.532Z,34.95
2022-11-17T22:09:08.382Z,34.88
2022-11-17T22:11:35.995Z,50.97
2022-11-17T22:14:19.366Z,47.97
2022-11-17T22:16:52.464Z,62.92
2022-11-17T22:19:21.926Z,40.42
2022-11-17T22:21:52.405Z,40.13
2022-11-17T22:24:20.108Z,38.13
2022-11-17T22:26:48.108Z,31.52
2022-11-17T22:29:20.826Z,33.97
2022-11-17T22:32:13.175Z,30.13
2022-11-17T22:34:42.042Z,23.75
2022-11-17T22:37:09.589Z,15.00
2022-11-17T22:39:38.370Z,15.00
2022-11-17T22:42:08.764Z,28.20
2022-11-17T22:44:35.987Z,18.97
2022-11-17T22:47:04.609Z,21.55
2022-11-17T22:49:31.857Z,20.48
2022-11-17T22:52:04.980Z,26.92
2022-11-17T22:54:32.408Z,30.23
2022-11-17T22:57:00.249Z,28.00
2022-11-17T22:59:29.289Z,32.05
2022-11-17T23:01:57.318Z,39.42
2022-11-17T23:04:24.572Z,34.78
2022-11-17T23:06:52.008Z,27.02
2022-11-17T23:09:19.300Z,31.10
2022-11-17T23:11:46.935Z,33.05
2022-11-17T23:14:15.134Z,35.85
2022-11-17T23:16:42.294Z,29.60
2022-11-17T23:19:13.130Z,31.45
2022-11-17T23:21:41.000Z,24.88
2022-11-17T23:24:13.177Z,21.27
2022-11-17T23:26:42.053Z,20.52
2022-11-17T23:29:10.134Z,18.58
2022-11-17T23:31:37.358Z,22.50
2022-11-17T23:34:05.035Z,21.30
2022-11-17T23:36:32.502Z,25.70
2022-11-17T23:39:00.846Z,22.63
2022-11-17T23:41:29.392Z,19.35
2022-11-17T23:43:56.699Z,22.85
2022-11-17T23:46:25.896Z,19.02
2022-11-17T23:48:56.559Z,24.67
2022-11-17T23:51:26.931Z,24.98
2022-11-17T23:53:54.143Z,24.95
2022-11-17T23:56:22.073Z,24.20
2022-11-17T23:58:50.289Z,23.70
